Time;durP1;ratioP1;P1;durP2;ratioP2;P2;SDS_P1;SDS_P2;PMS_P1;PMS_P2;Temp;Humidity;BMP_temperature;BMP_pressure;BME280_temperature;BME280_humidity;BME280_pressure;Samples;Min_cycle;Max_cycle;Signal;HPM_P1;HPM_P2
2023/01/25 00:01:42;;;;;;;65.53;33.27;;;;;;;0.19;100.00;103470.78;5077195;28;20032;-74
2023/01/25 00:04:08;;;;;;;60.83;31.93;;;;;;;0.24;100.00;103471.59;5086543;28;20034;-77
2023/01/25 00:06:33;;;;;;;68.93;31.93;;;;;;;-0.02;100.00;103469.38;5097132;28;20080;-77
2023/01/25 00:08:58;;;;;;;70.70;34.17;;;;;;;-0.14;100.00;103471.38;5114953;28;20028;-74
2023/01/25 00:11:23;;;;;;;58.73;31.07;;;;;;;0.14;100.00;103463.81;5097086;28;20031;-77
2023/01/25 00:13:52;;;;;;;67.83;35.07;;;;;;;0.23;100.00;103464.50;5095914;28;20066;-77
2023/01/25 00:16:17;;;;;;;70.90;36.43;;;;;;;0.39;100.00;103458.88;5097335;28;20027;-74
2023/01/25 00:18:43;;;;;;;67.53;36.00;;;;;;;0.28;100.00;103455.56;5097647;28;20049;-74
2023/01/25 00:21:16;;;;;;;69.73;35.33;;;;;;;0.31;100.00;103450.16;5096900;28;20028;-74
2023/01/25 00:23:42;;;;;;;72.37;35.63;;;;;;;0.36;100.00;103448.28;5096886;28;20023;-77
2023/01/25 00:26:07;;;;;;;67.03;34.20;;;;;;;0.11;100.00;103454.06;5096937;28;20446;-75
2023/01/25 00:28:33;;;;;;;64.93;32.60;;;;;;;0.18;100.00;103455.72;5096562;28;20031;-75
2023/01/25 00:31:03;;;;;;;76.07;36.10;;;;;;;0.42;100.00;103453.50;5097071;28;20032;-75
2023/01/25 00:33:38;;;;;;;66.83;34.57;;;;;;;0.17;100.00;103451.28;5097059;28;20020;-75
2023/01/25 00:36:40;;;;;;;65.07;35.20;;;;;;;0.33;100.00;103454.56;5115171;28;20035;-75
2023/01/25 00:39:12;;;;;;;64.88;34.17;;;;;;;0.35;100.00;103451.88;5015057;28;20037;-75
2023/01/25 00:41:37;;;;;;;;;;;;;;;0.09;100.00;103455.88;5084209;28;20032;-75
2023/01/25 00:44:03;;;;;;;73.30;35.63;;;;;;;0.28;100.00;103445.78;5114615;28;19919;-75
2023/01/25 00:46:28;;;;;;;70.73;36.00;;;;;;;0.03;100.00;103434.69;5076499;28;20020;-75
2023/01/25 00:48:54;;;;;;;72.97;34.70;;;;;;;-0.04;100.00;103433.91;5076454;28;20024;-75
2023/01/25 00:51:21;;;;;;;63.43;33.03;;;;;;;-0.08;100.00;103436.66;5076239;28;20087;-75
2023/01/25 00:53:46;;;;;;;69.87;35.17;;;;;;;0.12;100.00;103429.19;5076199;28;20050;-75
2023/01/25 00:56:11;;;;;;;68.90;34.03;;;;;;;-0.13;100.00;103427.84;5075899;28;20020;-75
2023/01/25 00:58:37;;;;;;;68.47;33.93;;;;;;;-0.05;100.00;103420.63;5076313;28;20031;-75
2023/01/25 01:01:02;;;;;;;75.03;37.10;;;;;;;0.07;100.00;103436.41;5076181;28;20033;-75
2023/01/25 01:03:28;;;;;;;64.87;33.90;;;;;;;0.19;100.00;103417.50;5076919;28;20068;-75
2023/01/25 01:06:09;;;;;;;69.53;36.07;;;;;;;-0.05;100.00;103420.63;5083335;28;20026;-75
2023/01/25 01:08:38;;;;;;;66.43;34.30;;;;;;;0.05;100.00;103411.56;5076523;28;20028;-75
2023/01/25 01:11:06;;;;;;;70.20;36.67;;;;;;;-0.22;100.00;103417.38;5093075;28;20043;-77
2023/01/25 01:13:32;;;;;;;64.50;33.97;;;;;;;-0.11;100.00;103415.41;5076319;28;20024;-75
2023/01/25 01:16:03;;;;;;;78.60;36.13;;;;;;;0.10;100.00;103420.34;5075868;28;20024;-77
2023/01/25 01:18:38;;;;;;;71.10;35.17;;;;;;;-0.08;100.00;103415.34;5075739;28;20035;-75
2023/01/25 01:21:04;;;;;;;76.70;35.23;;;;;;;0.05;100.00;103422.22;5075271;28;20064;-77
2023/01/25 01:23:30;;;;;;;67.80;33.33;;;;;;;-0.11;100.00;103415.41;5075875;28;20416;-77
2023/01/25 01:26:02;;;;;;;69.33;34.80;;;;;;;-0.10;100.00;103417.16;5075176;28;20050;-77
2023/01/25 01:28:29;;;;;;;66.53;31.83;;;;;;;0.02;100.00;103408.97;5075737;28;20122;-75
2023/01/25 01:31:02;;;;;;;68.80;34.67;;;;;;;-0.06;100.00;103408.22;5075187;28;20055;-75
2023/01/25 01:33:28;;;;;;;67.60;33.07;;;;;;;-0.12;100.00;103408.34;5075668;28;20031;-75
2023/01/25 01:35:53;;;;;;;67.13;32.30;;;;;;;-0.25;100.00;103412.13;5075035;28;20153;-77
2023/01/25 01:38:19;;;;;;;61.13;30.20;;;;;;;-0.28;100.00;103413.91;5109220;28;20557;-77
2023/01/25 01:40:46;;;;;;;59.63;29.20;;;;;;;-0.32;100.00;103406.91;5112825;28;20030;-75
2023/01/25 01:43:20;;;;;;;60.70;30.33;;;;;;;-0.22;100.00;103409.38;5112403;28;20019;-76
2023/01/25 01:45:59;;;;;;;58.93;29.17;;;;;;;-0.36;100.00;103407.84;5112356;28;20116;-75
2023/01/25 01:48:50;;;;;;;64.97;30.80;;;;;;;-0.44;100.00;103401.78;5112446;28;20034;-75
2023/01/25 01:51:50;;;;;;;66.90;31.23;;;;;;;-0.54;100.00;103402.81;5112534;28;20049;-75
2023/01/25 01:54:27;;;;;;;59.03;29.30;;;;;;;-0.20;100.00;103388.94;5104062;28;20062;-75
2023/01/25 01:57:02;;;;;;;65.13;31.70;;;;;;;-0.45;100.00;103399.16;5112051;28;20395;-75
2023/01/25 01:59:46;;;;;;;59.77;29.23;;;;;;;-0.53;100.00;103391.25;5096080;28;20071;-75
2023/01/25 02:02:13;;;;;;;65.00;32.30;;;;;;;-0.22;100.00;103390.75;5113412;28;20078;-75
2023/01/25 02:04:40;;;;;;;64.50;35.60;;;;;;;-0.39;100.00;103383.94;5095220;28;20023;-76
2023/01/25 02:07:33;;;;;;;75.30;35.87;;;;;;;-0.45;100.00;103392.03;5095337;28;20091;-76
2023/01/25 02:09:59;;;;;;;66.70;32.70;;;;;;;-0.25;100.00;103385.50;5066658;28;20046;-76
2023/01/25 02:12:25;;;;;;;70.00;33.00;;;;;;;-0.03;100.00;103382.41;5075793;28;20039;-76
2023/01/25 02:14:52;;;;;;;62.87;31.63;;;;;;;-0.04;100.00;103379.78;5075583;28;20027;-76
2023/01/25 02:17:25;;;;;;;64.13;30.27;;;;;;;-0.02;100.00;103383.28;5074725;28;20024;-76
2023/01/25 02:19:59;;;;;;;56.80;28.33;;;;;;;-0.13;100.00;103374.59;5075724;28;20371;-76
2023/01/25 02:22:37;;;;;;;64.00;28.23;;;;;;;-0.16;100.00;103374.66;5075192;28;20039;-76
2023/01/25 02:25:06;;;;;;;60.53;28.40;;;;;;;-0.43;100.00;103382.25;5075500;28;20032;-76
2023/01/25 02:27:37;;;;;;;63.43;27.23;;;;;;;-0.22;100.00;103380.09;5074964;28;20384;-76
2023/01/25 02:30:03;;;;;;;63.88;27.83;;;;;;;-0.15;100.00;103371.09;5075957;28;20028;-76
2023/01/25 02:32:28;;;;;;;59.87;27.97;;;;;;;-0.39;100.00;103367.97;5074893;28;20077;-76
2023/01/25 02:34:54;;;;;;;58.93;28.87;;;;;;;-0.52;100.00;103371.75;5075034;28;20472;-76
2023/01/25 02:37:19;;;;;;;63.27;28.67;;;;;;;-0.51;100.00;103368.19;5074432;28;20077;-76
2023/01/25 02:39:45;;;;;;;62.03;28.67;;;;;;;-0.55;100.00;103371.78;5075145;28;20032;-76
2023/01/25 02:42:10;;;;;;;65.60;30.67;;;;;;;-0.50;100.00;103364.63;5075433;28;20115;-76
2023/01/25 02:44:37;;;;;;;75.43;30.70;;;;;;;-0.69;100.00;103357.84;5075286;28;20020;-76
2023/01/25 02:47:02;;;;;;;62.50;26.73;;;;;;;-0.69;100.00;103358.72;5074984;28;20046;-76
2023/01/25 02:49:28;;;;;;;59.97;27.50;;;;;;;-0.42;100.00;103362.69;5075110;28;20019;-76
2023/01/25 02:51:56;;;;;;;61.37;27.63;;;;;;;-0.36;100.00;103359.06;5075355;28;20102;-76
2023/01/25 02:54:23;;;;;;;57.77;25.03;;;;;;;-0.16;100.00;103353.38;5074984;28;20024;-74
2023/01/25 02:56:49;;;;;;;75.67;31.47;;;;;;;-0.80;100.00;103349.16;5074857;28;20034;-77
2023/01/25 02:59:15;;;;;;;67.53;28.47;;;;;;;-0.64;100.00;103348.00;5074691;28;20119;-76
2023/01/25 03:01:42;;;;;;;61.60;26.63;;;;;;;-0.66;100.00;103347.13;5074316;28;20028;-76
2023/01/25 03:04:08;;;;;;;67.77;27.83;;;;;;;-0.71;100.00;103354.34;5075564;28;20024;-76
2023/01/25 03:06:34;;;;;;;61.27;27.07;;;;;;;-0.53;100.00;103354.00;5094600;28;20030;-74
2023/01/25 03:09:01;;;;;;;67.73;29.70;;;;;;;-0.44;100.00;103345.88;5095549;28;20092;-76
2023/01/25 03:11:26;;;;;;;66.73;27.30;;;;;;;-0.65;100.00;103340.94;5095547;28;20012;-76
2023/01/25 03:13:52;;;;;;;79.33;29.07;;;;;;;-0.61;100.00;103331.97;5095098;28;20049;-76
2023/01/25 03:16:17;;;;;;;66.27;26.40;;;;;;;-0.55;100.00;103334.53;5094747;28;20365;-74
2023/01/25 03:18:43;;;;;;;68.10;29.07;;;;;;;-0.73;100.00;103332.19;5095129;28;20024;-74
2023/01/25 03:21:15;;;;;;;74.40;31.30;;;;;;;-0.78;100.00;103336.69;5098447;28;20023;-77
2023/01/25 03:23:42;;;;;;;67.70;27.77;;;;;;;-0.54;100.00;103322.97;5094531;28;20023;-75
2023/01/25 03:26:19;;;;;;;69.07;29.27;;;;;;;-0.52;100.00;103321.19;5094449;28;20444;-74
2023/01/25 03:28:45;;;;;;;78.43;31.23;;;;;;;-0.88;100.00;103320.88;5079316;28;20016;-74
2023/01/25 03:31:13;;;;;;;65.47;27.97;;;;;;;-0.77;100.00;103311.88;5112277;22;20171;-73
2023/01/25 03:33:38;;;;;;;70.03;30.33;;;;;;;-0.90;100.00;103312.06;5083288;28;20036;-73
2023/01/25 03:36:05;;;;;;;71.27;30.40;;;;;;;-0.95;100.00;103303.28;5109602;28;20031;-71
2023/01/25 03:38:31;;;;;;;74.17;29.63;;;;;;;-0.69;100.00;103309.94;5092162;28;20038;-71
2023/01/25 03:40:57;;;;;;;71.37;30.33;;;;;;;-0.57;100.00;103304.44;5098564;28;20024;-71
2023/01/25 03:43:23;;;;;;;77.00;30.20;;;;;;;-0.58;100.00;103302.66;5090381;28;20075;-71
2023/01/25 03:45:59;;;;;;;70.83;30.87;;;;;;;-0.70;100.00;103303.75;5081038;28;20059;-71
2023/01/25 03:48:26;;;;;;;88.63;34.07;;;;;;;-1.07;100.00;103298.16;5092239;28;20023;-72
2023/01/25 03:50:55;;;;;;;78.87;33.93;;;;;;;-1.01;100.00;103300.72;5096569;28;20395;-72
2023/01/25 03:53:31;;;;;;;85.43;33.47;;;;;;;-1.13;100.00;103303.56;5096540;28;20073;-71
2023/01/25 03:56:02;;;;;;;69.83;29.47;;;;;;;-0.82;100.00;103299.50;5106302;28;20102;-72
2023/01/25 03:58:28;;;;;;;;;;;;;;;-1.03;100.00;103296.34;5097571;28;20483;-71
2023/01/25 04:00:55;;;;;;;76.00;31.83;;;;;;;-1.20;100.00;103302.78;5096400;28;19922;-71
2023/01/25 04:03:21;;;;;;;73.03;31.30;;;;;;;-0.95;100.00;103305.94;5087635;28;20027;-72
2023/01/25 04:05:46;;;;;;;76.63;33.17;;;;;;;-0.98;100.00;103292.69;5086551;28;20015;-72
2023/01/25 04:08:13;;;;;;;70.37;30.30;;;;;;;-0.92;100.00;103291.69;5091725;28;20023;-72
2023/01/25 04:10:38;;;;;;;78.53;33.10;;;;;;;-0.98;100.00;103292.69;5114344;28;20515;-72
2023/01/25 04:13:03;;;;;;;75.70;33.13;;;;;;;-0.80;100.00;103295.94;5114437;28;20043;-72
2023/01/25 04:15:29;;;;;;;73.43;31.83;;;;;;;-0.80;100.00;103287.97;5096529;28;20038;-74
2023/01/25 04:17:55;;;;;;;73.43;31.67;;;;;;;-0.98;100.00;103284.72;5087723;28;20031;-73
2023/01/25 04:20:20;;;;;;;66.23;29.90;;;;;;;-0.96;100.00;103285.56;5112478;28;20022;-72
2023/01/25 04:22:46;;;;;;;65.53;28.53;;;;;;;-1.11;100.00;103285.78;5075871;28;20611;-73
2023/01/25 04:25:11;;;;;;;64.07;29.13;;;;;;;-0.92;100.00;103279.28;5102426;28;20028;-73
2023/01/25 04:27:36;;;;;;;64.43;29.03;;;;;;;-0.95;100.00;103281.13;5094929;28;20032;-72
2023/01/25 04:30:02;;;;;;;64.07;27.90;;;;;;;-0.99;100.00;103280.28;5090395;28;20031;-72
2023/01/25 04:32:28;;;;;;;62.23;29.33;;;;;;;-1.16;100.00;103282.34;5104252;28;20076;-72
2023/01/25 04:34:53;;;;;;;61.50;28.97;;;;;;;-1.09;100.00;103281.34;5096649;28;20024;-72
2023/01/25 04:37:18;;;;;;;64.07;28.57;;;;;;;-1.02;100.00;103269.72;5095980;28;20369;-73
2023/01/25 04:39:44;;;;;;;61.47;27.70;;;;;;;-1.02;100.00;103261.72;5090939;28;20430;-73
2023/01/25 04:42:09;;;;;;;62.13;29.27;;;;;;;-0.99;100.00;103259.00;5095923;28;20026;-73
2023/01/25 04:44:34;;;;;;;74.17;29.17;;;;;;;-0.73;100.00;103255.03;5095939;28;20046;-73
2023/01/25 04:47:00;;;;;;;62.43;28.70;;;;;;;-0.68;100.00;103261.16;5096274;28;20050;-72
2023/01/25 04:49:25;;;;;;;64.87;30.13;;;;;;;-0.92;100.00;103255.34;5103874;28;20036;-73
2023/01/25 04:51:50;;;;;;;66.53;29.67;;;;;;;-1.06;100.00;103246.72;5083822;28;20114;-73
2023/01/25 04:54:15;;;;;;;63.23;30.60;;;;;;;-1.05;100.00;103252.91;5092259;28;20103;-73
2023/01/25 04:56:41;;;;;;;67.73;31.67;;;;;;;-1.19;100.00;103245.16;5087439;28;20076;-73
2023/01/25 04:59:06;;;;;;;57.33;28.57;;;;;;;-1.11;100.00;103243.25;5089207;28;20028;-72
2023/01/25 05:01:35;;;;;;;63.00;29.93;;;;;;;-0.91;100.00;103246.47;5093531;28;20486;-73
2023/01/25 05:04:00;;;;;;;59.50;30.60;;;;;;;-1.01;100.00;103249.31;5112954;28;20118;-73
2023/01/25 05:06:25;;;;;;;66.60;31.27;;;;;;;-0.94;100.00;103246.53;5113293;28;20448;-73
2023/01/25 05:08:51;;;;;;;55.33;28.23;;;;;;;-0.99;100.00;103237.75;5090971;28;20028;-73
2023/01/25 05:11:16;;;;;;;61.60;29.57;;;;;;;-0.91;100.00;103238.50;5091425;28;20019;-73
2023/01/25 05:13:41;;;;;;;55.13;28.60;;;;;;;-0.72;100.00;103235.50;5078962;28;20034;-72
2023/01/25 05:16:07;;;;;;;56.10;29.80;;;;;;;-0.79;100.00;103250.69;5113498;28;20073;-71
2023/01/25 05:18:32;;;;;;;53.83;28.70;;;;;;;-1.16;100.00;103239.81;5094968;28;20043;-72
2023/01/25 05:20:58;;;;;;;51.70;30.20;;;;;;;-1.06;100.00;103241.41;5113026;28;20034;-72
2023/01/25 05:23:23;;;;;;;58.30;29.67;;;;;;;-1.03;100.00;103241.38;5087466;28;20572;-71
2023/01/25 05:28:32;;;;;;;47.07;26.23;;;;;;;-0.83;100.00;103225.94;5113900;28;20023;-72
2023/01/25 05:30:57;;;;;;;49.33;27.57;;;;;;;-1.07;100.00;103226.38;5095012;28;20024;-73
2023/01/25 05:33:23;;;;;;;55.67;29.60;;;;;;;-1.20;100.00;103227.47;5095149;28;20087;-72
2023/01/25 05:35:48;;;;;;;52.83;28.97;;;;;;;-1.13;100.00;103229.13;5094926;28;20023;-73
2023/01/25 05:38:13;;;;;;;43.37;25.40;;;;;;;-1.05;100.00;103226.31;5094737;28;20024;-72
2023/01/25 05:40:39;;;;;;;48.57;25.00;;;;;;;-1.09;100.00;103209.56;5086196;28;20606;-72
2023/01/25 05:43:04;;;;;;;44.93;26.00;;;;;;;-1.00;100.00;103220.03;5094848;28;20039;-72
2023/01/25 05:45:29;;;;;;;49.80;26.77;;;;;;;-1.02;100.00;103216.53;5077959;28;20040;-72
2023/01/25 05:47:56;;;;;;;46.57;27.07;;;;;;;-0.93;100.00;103216.34;5086639;28;20398;-72
2023/01/25 05:50:23;;;;;;;46.13;27.13;;;;;;;-1.09;100.00;103204.25;5103194;28;20019;-72
2023/01/25 05:52:48;;;;;;;44.70;26.23;;;;;;;-1.27;100.00;103209.88;5086318;28;20077;-72
2023/01/25 05:55:13;;;;;;;48.93;25.60;;;;;;;-1.27;100.00;103215.19;5095007;28;20024;-72
2023/01/25 05:57:39;;;;;;;41.07;23.50;;;;;;;-1.40;100.00;103215.38;5092317;28;20032;-72
2023/01/25 06:00:06;;;;;;;47.13;26.60;;;;;;;-1.06;100.00;103209.50;5081058;28;20038;-72
2023/01/25 06:02:32;;;;;;;48.90;27.70;;;;;;;-1.28;100.00;103205.47;5091750;28;20024;-72
2023/01/25 06:04:57;;;;;;;48.73;25.90;;;;;;;-1.16;100.00;103189.31;5085878;28;20032;-72
2023/01/25 06:07:23;;;;;;;51.20;28.47;;;;;;;-1.17;100.00;103185.78;5095701;28;20384;-72
2023/01/25 06:09:48;;;;;;;50.93;30.67;;;;;;;-1.32;100.00;103201.97;5110001;28;20032;-72
2023/01/25 06:12:14;;;;;;;50.83;29.53;;;;;;;-1.30;100.00;103199.31;5101422;28;20063;-72
2023/01/25 06:14:40;;;;;;;59.47;30.53;;;;;;;-1.23;100.00;103195.63;5112153;28;20550;-72
2023/01/25 06:17:06;;;;;;;51.40;29.07;;;;;;;-1.19;100.00;103197.31;5113621;28;20038;-72
2023/01/25 06:19:31;;;;;;;62.30;33.00;;;;;;;-1.37;100.00;103196.75;5112336;28;20102;-72
2023/01/25 06:21:57;;;;;;;62.57;33.07;;;;;;;-1.09;100.00;103193.63;5096017;28;20476;-72
2023/01/25 06:24:22;;;;;;;57.43;31.10;;;;;;;-1.02;100.00;103195.25;5112086;28;20028;-72
2023/01/25 06:26:47;;;;;;;57.27;29.57;;;;;;;-0.72;100.00;103193.81;5109097;28;20057;-72
2023/01/25 06:29:13;;;;;;;57.70;30.60;;;;;;;-0.50;100.00;103199.63;5101763;28;20038;-72
2023/01/25 06:31:38;;;;;;;56.47;31.60;;;;;;;-0.56;100.00;103194.41;5081634;28;20111;-72
2023/01/25 06:34:05;;;;;;;58.97;33.90;;;;;;;-0.57;100.00;103196.19;5095969;28;20122;-72
2023/01/25 06:36:31;;;;;;;56.73;29.60;;;;;;;-0.47;100.00;103202.22;5096015;28;20043;-72
2023/01/25 06:38:56;;;;;;;60.03;31.13;;;;;;;-0.52;100.00;103201.44;5113590;28;20023;-72
2023/01/25 06:41:22;;;;;;;57.77;30.13;;;;;;;-0.79;100.00;103196.63;5114626;28;20047;-72
2023/01/25 06:43:50;;;;;;;57.80;31.13;;;;;;;-0.80;100.00;103194.88;5110517;28;20035;-73
2023/01/25 06:46:16;;;;;;;60.17;31.40;;;;;;;-0.71;100.00;103200.03;5084082;28;20032;-72
2023/01/25 06:48:41;;;;;;;54.77;30.63;;;;;;;-0.60;100.00;103201.56;5086806;28;20039;-72
2023/01/25 06:51:09;;;;;;;57.80;33.97;;;;;;;-0.86;100.00;103188.75;5109598;28;20028;-73
2023/01/25 06:53:38;;;;;;;62.93;32.30;;;;;;;-0.85;100.00;103198.50;5104217;28;20032;-72
2023/01/25 06:56:10;;;;;;;63.07;34.20;;;;;;;-0.87;100.00;103200.28;5107593;28;20480;-74
2023/01/25 06:58:36;;;;;;;66.43;33.30;;;;;;;-0.86;100.00;103206.50;5088437;28;20034;-72
2023/01/25 07:01:09;;;;;;;67.33;34.20;;;;;;;-0.83;100.00;103201.13;5105945;28;20020;-72
2023/01/25 07:03:34;;;;;;;60.93;33.07;;;;;;;-0.55;100.00;103204.16;5104353;28;20100;-72
2023/01/25 07:06:01;;;;;;;59.80;33.30;;;;;;;-0.90;100.00;103199.50;5088349;28;20368;-72
2023/01/25 07:08:27;;;;;;;63.90;31.27;;;;;;;-0.89;100.00;103199.47;5086999;28;20059;-73
2023/01/25 07:10:54;;;;;;;63.03;33.00;;;;;;;-0.76;100.00;103188.59;5105739;28;20028;-73
2023/01/25 07:13:19;;;;;;;60.37;32.20;;;;;;;-0.60;100.00;103187.38;5082897;28;20051;-72
2023/01/25 07:15:51;;;;;;;61.07;32.20;;;;;;;-0.65;100.00;103181.31;5108508;28;20034;-72
2023/01/25 07:18:17;;;;;;;60.23;32.80;;;;;;;-0.47;100.00;103188.91;5107893;28;20041;-72
2023/01/25 07:20:42;;;;;;;61.03;29.97;;;;;;;-0.45;100.00;103187.09;5109620;28;20053;-72
2023/01/25 07:23:07;;;;;;;59.33;32.43;;;;;;;-0.20;100.00;103175.94;5092516;28;20040;-73
2023/01/25 07:25:33;;;;;;;61.67;31.93;;;;;;;-0.23;100.00;103168.03;5096202;28;20031;-73
2023/01/25 07:27:58;;;;;;;57.80;33.33;;;;;;;-0.23;100.00;103181.34;5099841;28;20032;-72
2023/01/25 07:30:23;;;;;;;58.23;29.97;;;;;;;-0.57;100.00;103166.94;5110902;28;20047;-75
2023/01/25 07:32:49;;;;;;;61.17;30.60;;;;;;;-0.71;100.00;103168.13;5088875;28;21028;-75
2023/01/25 07:35:14;;;;;;;55.30;29.23;;;;;;;-0.70;100.00;103180.50;5091180;28;20055;-75
2023/01/25 07:37:39;;;;;;;52.47;29.03;;;;;;;-0.95;100.00;103162.34;5089052;28;20057;-75
2023/01/25 07:40:05;;;;;;;50.77;28.27;;;;;;;-0.90;100.00;103165.78;5097076;28;20110;-75
2023/01/25 07:42:31;;;;;;;54.10;30.23;;;;;;;-0.87;100.00;103157.75;5114665;28;20039;-75
2023/01/25 07:44:56;;;;;;;54.17;31.73;;;;;;;-0.90;100.00;103160.47;5085085;28;20118;-75
2023/01/25 07:47:21;;;;;;;52.97;29.53;;;;;;;-0.80;100.00;103157.63;5073269;27;20027;-74
2023/01/25 07:49:47;;;;;;;53.77;30.17;;;;;;;-1.01;100.00;103149.16;5076009;28;20083;-75
2023/01/25 07:52:12;;;;;;;50.10;26.33;;;;;;;-1.09;100.00;103156.41;5075411;28;20045;-75
2023/01/25 07:54:37;;;;;;;52.17;29.27;;;;;;;-0.90;100.00;103157.81;5081987;28;20027;-75
2023/01/25 07:57:03;;;;;;;56.43;29.93;;;;;;;-0.85;100.00;103155.97;5108691;28;20030;-75
2023/01/25 07:59:30;;;;;;;50.07;28.70;;;;;;;-0.76;100.00;103154.03;5088490;28;20553;-76
2023/01/25 08:01:55;;;;;;;54.57;29.00;;;;;;;-0.65;100.00;103146.72;5084627;28;20097;-75
2023/01/25 08:04:21;;;;;;;52.53;28.53;;;;;;;-0.55;100.00;103142.94;5107180;28;20032;-75
2023/01/25 08:06:46;;;;;;;63.40;30.70;;;;;;;-0.88;100.00;103134.72;5087285;28;20032;-76
2023/01/25 08:09:20;;;;;;;57.07;29.27;;;;;;;-0.91;100.00;103128.59;5091037;28;20023;-76
2023/01/25 08:11:48;;;;;;;58.83;33.33;;;;;;;-0.96;100.00;103128.69;5108284;28;20077;-76
2023/01/25 08:14:13;;;;;;;68.23;32.33;;;;;;;-0.96;100.00;103128.69;5108098;28;20023;-75
2023/01/25 08:16:39;;;;;;;62.33;30.93;;;;;;;-1.02;100.00;103120.81;5091012;28;20035;-76
2023/01/25 08:19:04;;;;;;;55.33;30.87;;;;;;;-0.96;100.00;103125.16;5089910;28;20027;-76
2023/01/25 08:21:32;;;;;;;58.73;30.17;;;;;;;-1.04;100.00;103122.63;5061411;28;20071;-75
2023/01/25 08:24:00;;;;;;;56.60;29.53;;;;;;;-0.69;100.00;103123.72;4998027;28;20049;-75
2023/01/25 08:26:26;;;;;;;51.97;28.00;;;;;;;-0.60;100.00;103113.75;5020890;28;20057;-75
2023/01/25 08:28:52;;;;;;;68.47;33.50;;;;;;;-0.65;100.00;103109.47;5026114;28;20052;-75
2023/01/25 08:31:21;;;;;;;57.17;30.60;;;;;;;-0.48;100.00;103107.31;5022717;28;20033;-76
2023/01/25 08:33:48;;;;;;;61.37;31.23;;;;;;;-0.84;100.00;103108.97;5044653;28;20045;-75
2023/01/25 08:36:15;;;;;;;58.33;30.63;;;;;;;-0.65;100.00;103110.34;5064159;28;20029;-76
2023/01/25 08:38:41;;;;;;;55.00;30.63;;;;;;;-0.77;100.00;103104.41;5032612;28;20033;-75
2023/01/25 08:41:15;;;;;;;59.77;31.43;;;;;;;-0.60;100.00;103102.25;5028236;28;20037;-76
2023/01/25 08:43:41;;;;;;;59.93;32.70;;;;;;;-0.09;100.00;103094.91;5037126;28;20044;-75
2023/01/25 08:46:07;;;;;;;53.50;30.80;;;;;;;-0.44;100.00;103093.06;5065233;28;20035;-75
2023/01/25 08:48:33;;;;;;;60.40;33.23;;;;;;;-0.58;100.00;103077.38;5054049;28;20036;-75
2023/01/25 08:50:58;;;;;;;67.80;33.53;;;;;;;-0.85;100.00;103070.84;5044399;28;20059;-75
2023/01/25 08:53:27;;;;;;;61.07;34.10;;;;;;;-0.98;100.00;103079.97;5032901;28;20040;-75
2023/01/25 08:55:52;;;;;;;61.13;32.40;;;;;;;-0.71;100.00;103072.34;5050783;28;20169;-75
2023/01/25 08:58:20;;;;;;;63.20;34.13;;;;;;;-0.63;100.00;103070.41;5040146;28;20116;-75
2023/01/25 09:00:46;;;;;;;62.87;33.40;;;;;;;-0.75;100.00;103065.31;5040718;28;20037;-75
2023/01/25 09:03:11;;;;;;;63.23;33.77;;;;;;;-0.76;100.00;103074.22;5040586;28;20039;-75
2023/01/25 09:05:38;;;;;;;71.03;36.70;;;;;;;-0.75;100.00;103065.31;5035713;28;20036;-76
2023/01/25 09:08:05;;;;;;;72.63;36.10;;;;;;;-0.77;100.00;103053.84;5034206;28;20044;-76
2023/01/25 09:10:31;;;;;;;65.83;36.83;;;;;;;-0.89;100.00;103057.63;5048787;28;20038;-76
2023/01/25 09:12:57;;;;;;;69.67;38.73;;;;;;;-0.92;100.00;103053.22;5046237;28;20041;-76
2023/01/25 09:15:22;;;;;;;80.83;38.90;;;;;;;-0.57;100.00;103070.28;5044964;28;20045;-76
2023/01/25 09:17:55;;;;;;;71.87;36.13;;;;;;;-1.07;100.00;103058.00;5043559;28;20040;-76
2023/01/25 09:20:21;;;;;;;81.10;41.40;;;;;;;-1.02;100.00;103057.00;5041745;28;20041;-76
2023/01/25 09:22:47;;;;;;;67.60;36.07;;;;;;;-0.63;100.00;103070.41;5046062;28;20029;-75
2023/01/25 09:25:13;;;;;;;74.57;36.93;;;;;;;-0.75;100.00;103050.25;5047682;28;20040;-75
2023/01/25 09:27:38;;;;;;;71.97;36.67;;;;;;;-0.91;100.00;103040.84;5045233;28;20037;-76
2023/01/25 09:30:06;;;;;;;77.47;37.37;;;;;;;-0.79;100.00;103034.38;5036920;28;20546;-75
2023/01/25 09:32:31;;;;;;;73.80;38.13;;;;;;;-0.84;100.00;103040.69;5030425;28;20037;-75
2023/01/25 09:34:57;;;;;;;77.13;37.63;;;;;;;-0.39;100.00;103032.63;5040146;28;20045;-76
2023/01/25 09:37:22;;;;;;;82.80;41.17;;;;;;;-0.55;100.00;103047.16;5029602;28;20044;-75
2023/01/25 09:39:47;;;;;;;74.53;39.17;;;;;;;-0.36;100.00;103053.81;5037218;28;20045;-76
2023/01/25 09:42:40;;;;;;;78.03;38.90;;;;;;;-0.46;100.00;103048.72;5050536;28;20405;-76
2023/01/25 09:45:09;;;;;;;77.87;40.77;;;;;;;-0.84;100.00;103053.97;5037606;28;20059;-75
2023/01/25 09:47:48;;;;;;;74.53;38.37;;;;;;;-0.75;100.00;103044.03;5047205;28;20144;-76
2023/01/25 09:50:32;;;;;;;77.90;40.10;;;;;;;-0.74;100.00;103040.47;5039545;28;20048;-76
2023/01/25 09:53:30;;;;;;;73.23;39.30;;;;;;;-0.37;100.00;103030.78;5070500;28;20066;-76
2023/01/25 09:56:00;;;;;;;77.10;38.47;;;;;;;-0.21;100.00;103035.75;5049404;28;20044;-76
2023/01/25 09:58:57;;;;;;;79.00;42.80;;;;;;;-0.57;100.00;103027.69;5036450;28;20021;-75
2023/01/25 10:01:43;;;;;;;77.97;38.97;;;;;;;-0.77;100.00;103020.16;5044214;28;20059;-76
2023/01/25 10:04:29;;;;;;;80.40;39.93;;;;;;;-0.59;100.00;103018.84;5032645;28;21353;-76
2023/01/25 10:07:13;;;;;;;87.40;44.50;;;;;;;-0.93;100.00;103019.56;5033427;28;20067;-76
2023/01/25 10:09:48;;;;;;;81.43;41.37;;;;;;;-0.84;100.00;103018.53;5040220;28;20485;-75
2023/01/25 10:12:24;;;;;;;88.67;44.13;;;;;;;-0.77;100.00;103014.81;5039666;28;20036;-75
2023/01/25 10:14:51;;;;;;;80.33;40.63;;;;;;;-0.83;100.00;103020.28;5042374;28;20033;-76
2023/01/25 10:17:35;;;;;;;87.37;43.10;;;;;;;-1.10;100.00;103011.09;5033170;28;20039;-75
2023/01/25 10:20:27;;;;;;;86.30;41.13;;;;;;;-0.83;100.00;103015.84;5040890;28;20055;-77
2023/01/25 10:23:16;;;;;;;90.40;46.37;;;;;;;-0.90;100.00;103003.56;5037948;28;20028;-76
2023/01/25 10:25:54;;;;;;;83.90;40.17;;;;;;;-0.48;100.00;103000.00;5047011;28;20048;-75
2023/01/25 10:28:29;;;;;;;79.27;41.60;;;;;;;-0.61;100.00;102994.06;5021816;28;20025;-76
2023/01/25 10:31:03;;;;;;;101.10;45.47;;;;;;;-0.71;100.00;102982.78;5034574;28;20049;-76
2023/01/25 10:33:34;;;;;;;94.33;44.53;;;;;;;-0.72;100.00;102974.81;5061351;28;20063;-76
2023/01/25 10:36:02;;;;;;;98.77;47.17;;;;;;;-0.88;100.00;102985.78;5068487;28;20043;-76
2023/01/25 10:38:41;;;;;;;89.47;48.20;;;;;;;-0.89;100.00;102975.19;5032406;28;20029;-76
2023/01/25 10:41:40;;;;;;;96.90;49.70;;;;;;;-0.67;100.00;102962.28;5043820;28;20095;-76
2023/01/25 10:44:23;;;;;;;108.03;51.07;;;;;;;-0.74;100.00;102966.00;5049066;28;20037;-76
2023/01/25 10:47:28;;;;;;;105.00;51.97;;;;;;;-0.84;100.00;102965.34;5049453;28;20033;-75
2023/01/25 10:49:55;;;;;;;101.83;48.93;;;;;;;-0.74;100.00;102966.00;5049186;28;20035;-75
2023/01/25 10:52:31;;;;;;;104.13;48.10;;;;;;;-0.94;100.00;102969.97;5043665;28;20017;-75
2023/01/25 10:55:16;;;;;;;96.10;48.80;;;;;;;-0.84;100.00;102960.91;5062048;28;20128;-75
2023/01/25 10:57:46;;;;;;;90.43;44.40;;;;;;;-0.85;100.00;102948.50;5046804;28;20028;-74
2023/01/25 11:00:27;;;;;;;102.03;47.23;;;;;;;-0.69;100.00;102942.84;5033326;28;20036;-74
2023/01/25 11:02:53;;;;;;;111.17;52.43;;;;;;;-0.46;100.00;102935.16;5045365;28;20020;-75
2023/01/25 11:05:27;;;;;;;104.37;50.57;;;;;;;-0.39;100.00;102936.81;5059602;28;20132;-75
2023/01/25 11:07:54;;;;;;;100.40;49.97;;;;;;;-0.24;100.00;102934.66;5041027;28;20039;-74
2023/01/25 11:10:33;;;;;;;99.53;53.10;;;;;;;-0.79;100.00;102933.31;5042008;28;20045;-75
2023/01/25 11:13:14;;;;;;;102.07;55.17;;;;;;;-0.95;100.00;102925.69;5065139;28;20042;-74